createdAt,value
2022-11-20T00:01:24.892Z,20.03
2022-11-20T00:03:57.941Z,17.77
2022-11-20T00:06:25.690Z,19.03
2022-11-20T00:08:55.815Z,16.43
2022-11-20T00:11:25.395Z,13.77
2022-11-20T00:13:57.330Z,16.90
2022-11-20T00:16:26.637Z,19.63
2022-11-20T00:18:54.606Z,17.67
2022-11-20T00:21:24.805Z,16.33
2022-11-20T00:23:55.316Z,19.27
2022-11-20T00:26:24.043Z,21.17
2022-11-20T00:28:54.291Z,21.67
2022-11-20T00:31:21.095Z,20.37
2022-11-20T00:33:47.768Z,18.23
2022-11-20T00:36:23.989Z,24.33
2022-11-20T00:38:58.523Z,24.17
2022-11-20T00:41:27.203Z,20.53
2022-11-20T00:43:55.688Z,21.43
2022-11-20T00:46:26.311Z,21.40
2022-11-20T00:48:52.776Z,24.73
2022-11-20T00:51:22.744Z,27.23
2022-11-20T00:53:49.658Z,25.33
2022-11-20T00:56:19.373Z,24.93
2022-11-20T00:58:49.147Z,26.63
2022-11-20T01:01:26.320Z,25.37
2022-11-20T01:03:55.068Z,22.17
2022-11-20T01:06:35.102Z,18.80
2022-11-20T01:09:10.306Z,21.80
2022-11-20T01:11:40.409Z,19.30
2022-11-20T01:14:15.457Z,20.00
2022-11-20T01:16:46.944Z,18.43
2022-11-20T01:19:18.754Z,17.13
2022-11-20T01:21:52.223Z,24.10
2022-11-20T01:24:21.609Z,18.40
2022-11-20T01:26:51.368Z,18.57
2022-11-20T01:29:22.463Z,18.90
2022-11-20T01:31:49.289Z,19.93
2022-11-20T01:34:19.692Z,19.60
2022-11-20T01:36:47.356Z,21.50
2022-11-20T01:39:24.419Z,23.30
2022-11-20T01:42:11.285Z,24.77
2022-11-20T01:45:08.701Z,25.00
2022-11-20T01:47:46.636Z,19.20
2022-11-20T01:50:26.192Z,20.70
2022-11-20T01:53:08.799Z,20.60
2022-11-20T01:55:48.611Z,24.77
2022-11-20T01:58:17.055Z,19.87
2022-11-20T02:00:43.833Z,23.20
2022-11-20T02:03:16.785Z,23.67
2022-11-20T02:07:17.669Z,21.57
2022-11-20T02:09:44.564Z,18.53
2022-11-20T02:13:43.222Z,22.53
2022-11-20T02:16:33.598Z,20.07
2022-11-20T02:19:04.690Z,22.10
2022-11-20T02:24:12.325Z,19.10
2022-11-20T02:27:24.380Z,17.17
2022-11-20T02:30:03.705Z,21.93
2022-11-20T02:32:35.038Z,18.27
2022-11-20T02:35:46.767Z,17.47
2022-11-20T02:38:14.540Z,18.07
2022-11-20T02:40:41.704Z,17.93
2022-11-20T02:43:08.529Z,14.13
2022-11-20T02:45:35.143Z,16.17
2022-11-20T02:48:01.688Z,22.50
2022-11-20T02:50:28.232Z,20.03
2022-11-20T02:52:54.704Z,19.93
2022-11-20T02:55:21.177Z,19.80
2022-11-20T02:57:47.630Z,20.57
2022-11-20T03:00:14.902Z,23.60
2022-11-20T03:02:41.340Z,23.33
2022-11-20T03:05:08.531Z,18.60
2022-11-20T03:07:35.008Z,18.70
2022-11-20T03:10:01.532Z,16.43
2022-11-20T03:12:27.977Z,19.30
2022-11-20T03:14:54.452Z,21.87
2022-11-20T03:17:20.907Z,20.20
2022-11-20T03:19:47.448Z,25.10
2022-11-20T03:22:13.910Z,21.37
2022-11-20T03:24:40.391Z,25.67
2022-11-20T03:27:06.869Z,27.73
2022-11-20T03:29:33.348Z,21.87
2022-11-20T03:31:59.827Z,26.53
2022-11-20T03:34:26.287Z,25.67
2022-11-20T03:36:52.761Z,32.97
2022-11-20T03:39:19.551Z,29.43
2022-11-20T03:41:46.279Z,31.50
2022-11-20T03:44:12.949Z,32.10
2022-11-20T03:46:39.548Z,27.77
2022-11-20T03:49:06.042Z,28.60
2022-11-20T03:51:36.085Z,28.13
2022-11-20T03:54:08.403Z,29.83
2022-11-20T03:56:39.378Z,29.53
2022-11-20T03:59:06.746Z,30.63
2022-11-20T04:01:37.662Z,27.33
2022-11-20T04:04:05.069Z,24.73
2022-11-20T04:06:37.924Z,29.10
2022-11-20T04:09:05.820Z,32.87
2022-11-20T04:11:35.040Z,29.10
2022-11-20T04:14:06.078Z,25.63
2022-11-20T04:16:36.424Z,31.97
2022-11-20T04:19:06.396Z,32.83
2022-11-20T04:21:32.936Z,31.70
2022-11-20T04:23:59.593Z,27.40
2022-11-20T04:26:29.230Z,30.37
2022-11-20T04:28:56.485Z,24.67
2022-11-20T04:31:27.640Z,32.33
2022-11-20T04:33:54.529Z,23.23
2022-11-20T04:36:26.285Z,20.77
2022-11-20T04:38:57.153Z,14.47
2022-11-20T04:41:27.527Z,13.37
2022-11-20T04:43:59.525Z,14.57
2022-11-20T04:46:28.038Z,11.80
2022-11-20T04:48:54.488Z,14.23
2022-11-20T04:51:21.020Z,12.67
2022-11-20T04:53:47.472Z,12.63
2022-11-20T04:56:14.906Z,12.23
2022-11-20T04:58:42.208Z,14.33
2022-11-20T05:01:22.498Z,20.60
2022-11-20T05:03:49.852Z,21.03
2022-11-20T05:06:20.669Z,22.60
2022-11-20T05:08:47.399Z,20.70
2022-11-20T05:11:18.721Z,22.73
2022-11-20T05:13:45.256Z,20.20
2022-11-20T05:16:16.317Z,21.40
2022-11-20T05:18:43.458Z,22.57
2022-11-20T05:21:11.967Z,24.90
2022-11-20T05:23:39.423Z,25.47
2022-11-20T05:26:08.363Z,25.03
2022-11-20T05:28:35.142Z,23.90
2022-11-20T05:31:10.549Z,22.23
2022-11-20T05:33:39.798Z,23.53
2022-11-20T05:36:07.189Z,25.43
2022-11-20T05:38:33.822Z,22.67
2022-11-20T05:41:10.364Z,22.77
2022-11-20T05:43:39.562Z,22.90
2022-11-20T05:46:09.200Z,21.60
2022-11-20T05:48:36.919Z,22.50
2022-11-20T05:51:06.994Z,20.30
2022-11-20T05:53:34.975Z,22.23
2022-11-20T05:56:11.870Z,31.00
2022-11-20T05:58:39.328Z,23.43
2022-11-20T06:01:17.525Z,31.00
2022-11-20T06:03:47.557Z,26.00
2022-11-20T06:06:15.824Z,27.67
2022-11-20T06:08:42.915Z,28.93
2022-11-20T06:11:11.707Z,28.17
2022-11-20T06:13:42.278Z,29.80
2022-11-20T06:16:10.735Z,18.63
2022-11-20T06:18:37.790Z,21.50
2022-11-20T06:21:16.727Z,22.43
2022-11-20T06:23:44.173Z,20.27
2022-11-20T06:26:16.531Z,20.03
2022-11-20T06:28:42.972Z,22.83
2022-11-20T06:31:13.758Z,20.43
2022-11-20T06:33:41.009Z,20.47
2022-11-20T06:36:10.936Z,19.07
2022-11-20T06:38:38.790Z,22.37
2022-11-20T06:41:13.269Z,20.50
2022-11-20T06:43:39.745Z,19.97
2022-11-20T06:46:06.412Z,18.40
2022-11-20T06:48:33.182Z,18.37
2022-11-20T06:50:59.899Z,18.67
2022-11-20T06:53:26.604Z,17.03
2022-11-20T06:55:56.888Z,18.50
2022-11-20T06:58:23.681Z,22.87
2022-11-20T07:00:50.147Z,33.10
2022-11-20T07:03:16.635Z,31.03
2022-11-20T07:05:43.126Z,38.87
2022-11-20T07:08:09.613Z,33.23
2022-11-20T07:10:36.524Z,28.53
2022-11-20T07:13:03.147Z,29.33
2022-11-20T07:15:30.219Z,25.63
2022-11-20T07:17:59.377Z,22.43
2022-11-20T07:20:26.197Z,24.83
2022-11-20T07:22:59.083Z,25.97
2022-11-20T07:25:27.990Z,28.40
2022-11-20T07:28:01.267Z,29.23
2022-11-20T07:30:29.045Z,26.83
2022-11-20T07:32:56.753Z,31.37
2022-11-20T07:35:24.748Z,28.87
2022-11-20T07:37:51.197Z,28.90
2022-11-20T07:40:18.852Z,31.30
2022-11-20T07:42:53.378Z,29.17
2022-11-20T07:45:22.051Z,25.97
2022-11-20T07:47:49.537Z,25.20
2022-11-20T07:50:16.869Z,22.37
2022-11-20T07:52:43.539Z,24.83
2022-11-20T07:55:11.366Z,28.10
2022-11-20T07:57:38.072Z,31.80
2022-11-20T08:00:09.315Z,34.20
2022-11-20T08:02:41.864Z,30.70
2022-11-20T08:05:09.885Z,32.07
2022-11-20T08:07:41.418Z,36.97
2022-11-20T08:10:10.708Z,34.83
2022-11-20T08:13:02.435Z,32.27
2022-11-20T08:15:29.158Z,27.93
2022-11-20T08:18:29.956Z,30.17
2022-11-20T08:20:57.441Z,30.53
2022-11-20T08:23:23.992Z,24.63
2022-11-20T08:25:51.455Z,26.30
2022-11-20T08:28:21.324Z,25.47
2022-11-20T08:30:50.006Z,31.43
2022-11-20T08:33:18.944Z,27.67
2022-11-20T08:35:45.538Z,28.73
2022-11-20T08:38:11.991Z,26.93
2022-11-20T08:40:38.451Z,27.73
2022-11-20T08:43:04.891Z,28.30
2022-11-20T08:45:34.609Z,30.77
2022-11-20T08:48:03.241Z,33.10
2022-11-20T08:50:32.104Z,29.30
2022-11-20T08:53:06.199Z,33.40
2022-11-20T08:55:33.064Z,30.77
2022-11-20T08:58:03.965Z,30.80
2022-11-20T09:00:30.404Z,31.60
2022-11-20T09:02:57.693Z,33.80
2022-11-20T09:05:24.149Z,33.37
2022-11-20T09:07:50.627Z,33.97
2022-11-20T09:10:24.195Z,31.43
2022-11-20T09:12:51.978Z,37.63
2022-11-20T09:15:19.039Z,36.27
2022-11-20T09:17:56.554Z,39.97
2022-11-20T09:20:23.406Z,36.63
2022-11-20T09:22:49.988Z,32.77
2022-11-20T09:25:16.864Z,29.30
2022-11-20T09:27:44.314Z,28.70
2022-11-20T09:30:12.620Z,26.17
2022-11-20T09:32:42.616Z,25.27
2022-11-20T09:35:10.589Z,28.67
2022-11-20T09:37:37.079Z,26.10
2022-11-20T09:40:04.330Z,30.10
2022-11-20T09:44:25.127Z,29.17
2022-11-20T09:47:08.761Z,28.03
2022-11-20T09:50:27.103Z,21.37
2022-11-20T09:55:31.395Z,33.10
2022-11-20T09:57:59.857Z,26.20
2022-11-20T10:00:29.407Z,28.63
2022-11-20T10:04:10.725Z,28.23
2022-11-20T10:09:58.062Z,18.90
2022-11-20T10:15:32.820Z,24.97
2022-11-20T10:19:15.230Z,14.20
2022-11-20T10:22:31.326Z,14.00
2022-11-20T10:25:20.534Z,19.37
2022-11-20T10:29:33.443Z,20.33
2022-11-20T10:32:34.781Z,20.73
2022-11-20T10:35:17.330Z,13.83
2022-11-20T10:37:55.477Z,14.50
2022-11-20T10:41:31.971Z,14.70
2022-11-20T10:44:10.277Z,18.07
2022-11-20T10:46:45.036Z,13.97
2022-11-20T10:49:19.393Z,13.20
2022-11-20T10:53:55.697Z,14.77
2022-11-20T10:56:51.384Z,13.93
2022-11-20T11:01:23.341Z,14.20
2022-11-20T11:03:52.705Z,13.10
2022-11-20T11:06:55.334Z,11.37
2022-11-20T11:09:36.698Z,13.93
2022-11-20T11:12:11.127Z,13.43
2022-11-20T11:14:50.623Z,14.03
2022-11-20T11:17:34.289Z,12.33
2022-11-20T11:20:17.806Z,15.30
2022-11-20T11:23:03.136Z,13.23
2022-11-20T11:25:37.233Z,14.83
2022-11-20T11:28:28.086Z,15.17
2022-11-20T11:30:55.125Z,15.20
2022-11-20T11:33:27.911Z,14.87
2022-11-20T11:36:02.876Z,15.60
2022-11-20T11:38:43.348Z,14.57
2022-11-20T11:41:25.330Z,14.90
2022-11-20T11:44:34.380Z,14.57
2022-11-20T11:47:02.768Z,13.53
2022-11-20T11:49:29.270Z,16.20
2022-11-20T11:52:21.427Z,12.10
2022-11-20T11:54:59.903Z,12.60
2022-11-20T11:59:31.340Z,11.50
2022-11-20T12:02:34.791Z,6.13
2022-11-20T12:05:29.661Z,5.97
2022-11-20T12:08:24.129Z,7.20
2022-11-20T12:11:13.347Z,7.33
2022-11-20T12:14:37.419Z,8.33
2022-11-20T12:17:04.527Z,7.43
2022-11-20T12:19:34.987Z,7.37
2022-11-20T12:22:41.728Z,8.23
2022-11-20T12:25:44.816Z,7.53
2022-11-20T12:30:30.820Z,5.70
2022-11-20T12:33:39.899Z,7.47
2022-11-20T12:37:07.427Z,7.97
2022-11-20T12:39:42.922Z,8.70
2022-11-20T12:44:57.128Z,9.37
2022-11-20T12:49:44.902Z,10.07
2022-11-20T12:53:40.997Z,10.60
2022-11-20T12:58:49.371Z,11.97
2022-11-20T13:01:54.245Z,8.00
2022-11-20T13:06:30.836Z,9.67
2022-11-20T13:08:57.446Z,9.47
2022-11-20T13:11:51.840Z,8.77
2022-11-20T13:15:37.219Z,8.27
2022-11-20T13:18:09.017Z,7.70
2022-11-20T13:20:41.193Z,8.03
2022-11-20T13:23:07.666Z,6.63
2022-11-20T13:25:40.214Z,5.83
2022-11-20T13:28:30.467Z,6.83
2022-11-20T13:30:58.932Z,10.23
2022-11-20T13:33:38.441Z,11.13
2022-11-20T13:36:21.132Z,11.90
2022-11-20T13:38:53.954Z,11.37
2022-11-20T13:42:01.755Z,9.70
2022-11-20T13:44:39.709Z,10.00
2022-11-20T13:47:26.501Z,14.07
2022-11-20T13:49:55.833Z,10.63
2022-11-20T13:54:23.063Z,14.53
2022-11-20T13:57:25.017Z,10.43
2022-11-20T14:00:19.093Z,9.70
2022-11-20T14:05:55.002Z,15.60
2022-11-20T14:08:45.955Z,12.83
2022-11-20T14:11:27.663Z,14.50
2022-11-20T14:14:19.277Z,13.23
2022-11-20T14:16:46.790Z,11.97
2022-11-20T14:19:30.866Z,13.13
2022-11-20T14:22:19.183Z,12.07
2022-11-20T14:24:47.322Z,15.37
2022-11-20T14:27:21.054Z,13.47
2022-11-20T14:29:50.689Z,14.73
2022-11-20T14:32:22.524Z,14.63
2022-11-20T14:34:51.257Z,16.30
2022-11-20T14:37:32.692Z,18.70
2022-11-20T14:39:59.286Z,19.90
2022-11-20T14:42:28.853Z,17.23
2022-11-20T14:45:00.366Z,14.30
2022-11-20T14:47:31.357Z,14.90
2022-11-20T14:49:59.305Z,14.63
2022-11-20T14:52:28.281Z,17.47
2022-11-20T14:55:00.889Z,14.90
2022-11-20T14:57:33.966Z,14.57
2022-11-20T15:00:35.206Z,22.40
2022-11-20T15:03:01.708Z,16.37
2022-11-20T15:05:50.352Z,31.87
2022-11-20T15:08:17.925Z,20.03
2022-11-20T15:10:50.736Z,14.27
2022-11-20T15:13:53.843Z,12.43
2022-11-20T15:16:24.156Z,12.90
2022-11-20T15:18:51.439Z,12.70
2022-11-20T15:21:21.221Z,16.33
2022-11-20T15:23:48.378Z,12.67
2022-11-20T15:26:23.785Z,20.60
2022-11-20T15:28:50.375Z,18.40
2022-11-20T15:31:21.993Z,21.57
2022-11-20T15:33:49.251Z,17.87
2022-11-20T15:36:15.968Z,16.90
2022-11-20T15:38:42.457Z,12.73
2022-11-20T15:41:10.457Z,15.27
2022-11-20T15:43:36.974Z,13.70
2022-11-20T15:46:11.347Z,13.70
2022-11-20T15:48:51.364Z,37.93
2022-11-20T15:51:39.584Z,37.10
2022-11-20T15:54:15.256Z,18.13
2022-11-20T15:56:41.998Z,16.73
2022-11-20T15:59:08.451Z,20.47
2022-11-20T16:01:35.381Z,14.47
2022-11-20T16:04:02.163Z,22.17
2022-11-20T16:06:28.615Z,14.97
2022-11-20T16:08:55.092Z,16.17
2022-11-20T16:11:21.589Z,18.10
2022-11-20T16:14:07.728Z,17.10
2022-11-20T16:16:37.267Z,15.80
2022-11-20T16:19:03.878Z,21.47
2022-11-20T16:21:31.342Z,18.77
2022-11-20T16:24:06.448Z,22.50
2022-11-20T16:26:34.188Z,22.80
2022-11-20T16:29:03.636Z,28.20
2022-11-20T16:31:30.338Z,24.53
2022-11-20T16:34:00.832Z,21.70
2022-11-20T16:36:29.459Z,21.83
2022-11-20T16:38:59.647Z,28.27
2022-11-20T16:41:30.111Z,22.73
2022-11-20T16:44:02.824Z,19.93
2022-11-20T16:46:31.881Z,24.50
2022-11-20T16:49:05.154Z,23.27
2022-11-20T16:51:35.633Z,23.50
2022-11-20T16:54:07.923Z,18.70
2022-11-20T16:56:35.429Z,23.87
2022-11-20T16:59:03.114Z,22.00
2022-11-20T17:01:31.164Z,23.80
2022-11-20T17:04:07.251Z,24.90
2022-11-20T17:06:37.016Z,21.03
2022-11-20T17:09:04.546Z,27.53
2022-11-20T17:11:32.682Z,28.40
2022-11-20T17:13:59.871Z,29.30
2022-11-20T17:16:26.500Z,40.83
2022-11-20T17:19:02.956Z,45.67
2022-11-20T17:21:38.554Z,48.77
2022-11-20T17:24:09.419Z,47.40
2022-11-20T17:26:38.430Z,47.80
2022-11-20T17:29:10.219Z,50.20
2022-11-20T17:31:38.054Z,32.13
2022-11-20T17:34:07.045Z,26.90
2022-11-20T17:36:34.018Z,30.87
2022-11-20T17:39:00.523Z,36.10
2022-11-20T17:41:29.652Z,31.57
2022-11-20T17:43:59.074Z,27.70
2022-11-20T17:46:31.859Z,28.97
2022-11-20T17:48:58.846Z,35.57
2022-11-20T17:51:31.575Z,31.83
2022-11-20T17:54:01.692Z,32.17
2022-11-20T17:56:51.407Z,45.50
2022-11-20T17:59:18.583Z,53.63
2022-11-20T18:01:45.605Z,55.10
2022-11-20T18:04:12.768Z,51.70
2022-11-20T18:06:39.688Z,46.00
2022-11-20T18:09:06.823Z,45.30
2022-11-20T18:11:37.211Z,48.27
2022-11-20T18:14:28.155Z,51.33
2022-11-20T18:17:15.128Z,52.07
2022-11-20T18:20:01.203Z,58.40
2022-11-20T18:22:47.992Z,48.27
2022-11-20T18:25:14.509Z,59.93
2022-11-20T18:27:41.002Z,61.50
2022-11-20T18:30:08.775Z,47.17
2022-11-20T18:32:35.446Z,52.40
2022-11-20T18:35:01.921Z,39.97
2022-11-20T18:37:28.368Z,50.87
2022-11-20T18:39:55.786Z,46.57
2022-11-20T18:42:40.450Z,54.83
2022-11-20T18:45:07.731Z,41.73
2022-11-20T18:47:39.324Z,46.13
2022-11-20T18:50:08.061Z,49.20
2022-11-20T18:52:41.011Z,47.93
2022-11-20T18:55:08.128Z,47.83
2022-11-20T18:57:34.874Z,51.57
2022-11-20T19:00:07.988Z,41.40
2022-11-20T19:02:41.005Z,41.83
2022-11-20T19:05:12.136Z,43.50
2022-11-20T19:07:39.020Z,42.13
2022-11-20T19:10:06.527Z,41.83
2022-11-20T19:12:33.172Z,47.37
2022-11-20T19:14:59.650Z,51.20
2022-11-20T19:17:26.134Z,47.37
2022-11-20T19:19:54.113Z,50.63
2022-11-20T19:22:20.972Z,48.43
2022-11-20T19:24:47.454Z,52.30
2022-11-20T19:27:13.913Z,44.20
2022-11-20T19:29:40.389Z,45.93
2022-11-20T19:32:06.833Z,45.73
2022-11-20T19:34:33.319Z,45.73
2022-11-20T19:37:00.312Z,52.67
2022-11-20T19:39:27.095Z,42.97
2022-11-20T19:41:53.750Z,42.90
2022-11-20T19:44:20.235Z,48.47
2022-11-20T19:46:46.709Z,64.47
2022-11-20T19:49:14.353Z,64.27
2022-11-20T19:51:50.212Z,77.93
2022-11-20T19:54:17.180Z,70.77
2022-11-20T19:56:44.658Z,74.67
2022-11-20T19:59:11.254Z,68.90
2022-11-20T20:01:37.736Z,79.23
2022-11-20T20:04:05.190Z,71.17
2022-11-20T20:06:34.236Z,72.33
2022-11-20T20:09:11.119Z,79.77
2022-11-20T20:11:38.896Z,70.57
2022-11-20T20:14:12.825Z,65.07
2022-11-20T20:16:39.752Z,61.67
2022-11-20T20:19:06.523Z,50.37
2022-11-20T20:21:35.540Z,43.10
2022-11-20T20:24:02.867Z,42.03
2022-11-20T20:26:31.240Z,42.37
2022-11-20T20:28:58.563Z,53.57
2022-11-20T20:31:28.340Z,82.33
2022-11-20T20:33:55.520Z,92.03
2022-11-20T20:36:23.581Z,131.13
2022-11-20T20:38:55.707Z,100.37
2022-11-20T20:41:24.141Z,138.47
2022-11-20T20:44:09.870Z,81.63
2022-11-20T20:46:36.399Z,107.43
2022-11-20T20:49:03.165Z,122.57
2022-11-20T20:51:29.723Z,106.53
2022-11-20T20:53:56.280Z,138.33
2022-11-20T20:56:22.738Z,50.90
2022-11-20T20:58:49.213Z,35.03
2022-11-20T21:01:18.269Z,34.90
2022-11-20T21:03:45.019Z,37.47
2022-11-20T21:06:12.796Z,46.73
2022-11-20T21:08:42.085Z,57.53
2022-11-20T21:11:14.896Z,56.90
2022-11-20T21:13:44.000Z,38.57
2022-11-20T21:16:12.267Z,60.00
2022-11-20T21:18:38.967Z,82.97
2022-11-20T21:21:26.046Z,147.23
2022-11-20T21:23:52.954Z,62.63
2022-11-20T21:26:21.121Z,100.60
2022-11-20T21:28:49.059Z,83.33
2022-11-20T21:31:21.318Z,99.90
2022-11-20T21:33:50.284Z,106.97
2022-11-20T21:36:22.731Z,81.53
2022-11-20T21:38:52.095Z,75.43
2022-11-20T21:41:18.861Z,104.60
2022-11-20T21:43:45.701Z,123.10
2022-11-20T21:46:16.001Z,67.03
2022-11-20T21:48:45.175Z,114.47
2022-11-20T21:51:20.899Z,121.97
2022-11-20T21:53:49.260Z,55.73
2022-11-20T21:56:20.602Z,81.10
2022-11-20T21:58:48.175Z,63.90
2022-11-20T22:01:21.365Z,79.77
2022-11-20T22:03:56.028Z,102.33
2022-11-20T22:06:24.858Z,105.33
2022-11-20T22:08:51.498Z,71.67
2022-11-20T22:11:21.223Z,88.30
2022-11-20T22:14:06.905Z,41.83
2022-11-20T22:16:35.394Z,79.57
2022-11-20T22:19:02.512Z,47.00
2022-11-20T22:21:30.357Z,66.07
2022-11-20T22:23:57.820Z,62.27
2022-11-20T22:26:28.320Z,53.03
2022-11-20T22:28:58.062Z,66.93
2022-11-20T22:31:28.537Z,76.60
2022-11-20T22:33:56.579Z,95.50
2022-11-20T22:36:27.688Z,130.50
2022-11-20T22:38:54.734Z,110.67
2022-11-20T22:41:26.822Z,106.90
2022-11-20T22:44:04.642Z,86.93
2022-11-20T22:46:34.613Z,94.40
2022-11-20T22:49:05.341Z,72.63
2022-11-20T22:51:34.674Z,91.47
2022-11-20T22:54:02.712Z,81.97
2022-11-20T22:56:29.178Z,125.30
2022-11-20T22:58:55.688Z,82.03
2022-11-20T23:01:34.353Z,48.63
2022-11-20T23:04:04.954Z,74.37
2022-11-20T23:06:35.389Z,85.33
2022-11-20T23:09:07.399Z,57.43
2022-11-20T23:11:34.896Z,47.60
2022-11-20T23:14:06.143Z,74.03
2022-11-20T23:16:34.150Z,47.93
2022-11-20T23:19:04.930Z,44.50
2022-11-20T23:21:32.983Z,67.77
2022-11-20T23:24:00.365Z,66.77
2022-11-20T23:26:34.366Z,47.40
2022-11-20T23:29:01.570Z,40.23
2022-11-20T23:31:31.252Z,52.30
2022-11-20T23:33:58.935Z,40.73
2022-11-20T23:36:26.004Z,59.37
2022-11-20T23:38:52.493Z,42.27
2022-11-20T23:41:18.983Z,52.77
2022-11-20T23:43:45.424Z,35.83
2022-11-20T23:46:16.242Z,65.33
2022-11-20T23:48:44.230Z,95.57
2022-11-20T23:51:10.675Z,45.03
2022-11-20T23:53:37.187Z,109.70
2022-11-20T23:56:05.390Z,77.63
2022-11-20T23:58:35.406Z,73.00
